0NC6 weather

Our Community Hospital Heliport
Scotland Neck, North Carolina, United States

Public forecast

Using degrees Fahrenheit for public forecast. Weather courtesy of forecast.io.

Closest aviation weather report (METAR) to Our Community Hospital Heliport

Closest report is Tarboro Edgecombe Airport, 13.2 nm (24.5 km) SSW. Retrieved 2020/07/08 07:35 UTC (2 minutes ago):

KETC 080735Z AUTO 00000KT 5SM BR CLR 22/21 A2996 RMK AO2 T02160213

Closest aviation forecast (TAF) to Our Community Hospital Heliport

Closest forecast is Rocky Mount Wilson Regional Airport, 28.3 nm (52.4 km) SW. Retrieved 2020/07/08 06:40 UTC (57 minutes ago):

TAF KRWI 080537Z 0806/0906 07004KT P6SM SCT007 SCT015 BKN050 FM080700 07003KT P6SM SCT007 BKN015 TEMPO 0808/0812 5SM -RA SCT007 OVC015 FM081400 06005KT P6SM VCSH OVC015 FM081600 06007KT 5SM -SHRA SCT025 BKN035 PROB30 0817/0820 2SM TSRA BKN025CB FM082300 07009KT P6SM SCT035 BKN100